Time;durP1;ratioP1;P1;durP2;ratioP2;P2;SDS_P1;SDS_P2;PMS_P1;PMS_P2;Temp;Humidity;BMP_temperature;BMP_pressure;BME280_temperature;BME280_humidity;BME280_pressure;Samples;Min_cycle;Max_cycle;Signal;HPM_P1;HPM_P2
2021/11/16 00:01:41;;;;;;;;;;;10.90;99.90;;;;;;5035199;28;20012;-81
2021/11/16 00:04:08;;;;;;;;;;;11.10;99.90;;;;;;5035230;28;19905;-80
2021/11/16 00:06:34;;;;;;;;;;;11.20;99.90;;;;;;5035192;28;19952;-80
2021/11/16 00:09:02;;;;;;;;;;;11.30;99.90;;;;;;5035580;28;19927;-80
2021/11/16 00:11:28;;;;;;;;;;;11.20;99.90;;;;;;5035116;28;20348;-80
2021/11/16 00:13:53;;;;;;;;;;;11.00;99.90;;;;;;5034630;28;19917;-80
2021/11/16 00:16:20;;;;;;;;;;;10.70;99.90;;;;;;5035088;28;19912;-80
2021/11/16 00:18:47;;;;;;;;;;;10.70;99.90;;;;;;5034966;28;20000;-79
2021/11/16 00:21:14;;;;;;;;;;;10.60;99.90;;;;;;5033652;28;20285;-80
2021/11/16 00:23:42;;;;;;;;;;;10.50;99.90;;;;;;5033553;28;20385;-80
2021/11/16 00:26:09;;;;;;;;;;;10.70;99.90;;;;;;5034826;28;20277;-80
2021/11/16 00:28:35;;;;;;;;;;;10.80;99.90;;;;;;5034841;28;19905;-81
2021/11/16 00:31:00;;;;;;;;;;;10.90;99.90;;;;;;5033461;28;20358;-80
2021/11/16 00:33:31;;;;;;;;;;;10.90;99.90;;;;;;5035088;28;20362;-80
2021/11/16 00:35:57;;;;;;;;;;;11.00;99.90;;;;;;5034641;28;19912;-81
2021/11/16 00:38:25;;;;;;;;;;;10.90;99.90;;;;;;5034640;28;19905;-80
2021/11/16 00:40:51;;;;;;;;;;;10.90;99.90;;;;;;5034579;28;19912;-80
2021/11/16 00:43:17;;;;;;;;;;;11.00;99.90;;;;;;5034765;28;19909;-80
2021/11/16 00:45:44;;;;;;;;;;;11.10;99.90;;;;;;5034529;28;20333;-80
2021/11/16 00:48:10;;;;;;;;;;;10.90;99.90;;;;;;5034619;28;19909;-80
2021/11/16 00:50:37;;;;;;;;;;;10.80;99.90;;;;;;5034428;28;19915;-81
2021/11/16 00:53:03;;;;;;;;;;;10.90;99.90;;;;;;5034241;28;20373;-80
2021/11/16 00:55:29;;;;;;;;;;;10.70;99.90;;;;;;5034495;28;19996;-81
2021/11/16 00:57:54;;;;;;;;;;;10.80;99.90;;;;;;5032959;28;19912;-80
2021/11/16 01:00:20;;;;;;;;;;;10.70;99.90;;;;;;5034277;28;19905;-81
2021/11/16 01:02:45;;;;;;;;;;;10.70;99.90;;;;;;5034273;28;19917;-81
2021/11/16 01:05:12;;;;;;;;;;;10.70;99.90;;;;;;5032863;28;19912;-79
2021/11/16 01:07:39;;;;;;;;;;;10.70;99.90;;;;;;5034023;28;19905;-80
2021/11/16 01:10:05;;;;;;;;;;;10.70;99.90;;;;;;5034208;28;19905;-80
2021/11/16 01:12:30;;;;;;;;;;;10.80;99.90;;;;;;5034026;28;19945;-81
2021/11/16 01:14:59;;;;;;;;;;;10.90;99.90;;;;;;5033992;28;20312;-80
2021/11/16 01:17:24;;;;;;;;;;;10.90;99.90;;;;;;5033958;28;19940;-80
2021/11/16 01:19:50;;;;;;;;;;;11.10;99.90;;;;;;5034285;28;19905;-81
2021/11/16 01:22:16;;;;;;;;;;;11.30;99.90;;;;;;5033876;28;19913;-79
2021/11/16 01:24:42;;;;;;;;;;;11.50;99.90;;;;;;5033880;28;19951;-80
2021/11/16 01:27:11;;;;;;;;;;;11.40;99.90;;;;;;5033809;28;20000;-81
2021/11/16 01:29:38;;;;;;;;;;;11.10;99.90;;;;;;5032473;28;20336;-81
2021/11/16 01:32:05;;;;;;;;;;;11.10;99.90;;;;;;5033766;28;20370;-81
2021/11/16 01:34:32;;;;;;;;;;;11.20;99.90;;;;;;5032439;28;19905;-80
2021/11/16 01:36:58;;;;;;;;;;;11.20;99.90;;;;;;5033770;28;19912;-80
2021/11/16 01:39:26;;;;;;;;;;;11.10;99.90;;;;;;5033640;28;19905;-80
2021/11/16 01:41:52;;;;;;;;;;;10.90;99.90;;;;;;5033600;28;19916;-81
2021/11/16 01:44:18;;;;;;;;;;;11.00;99.90;;;;;;5033935;28;19911;-81
2021/11/16 01:46:43;;;;;;;;;;;10.80;99.90;;;;;;5033654;28;19905;-81
2021/11/16 01:49:09;;;;;;;;;;;10.80;99.90;;;;;;5033606;28;20277;-80
2021/11/16 01:51:36;;;;;;;;;;;11.00;99.90;;;;;;5033552;28;19905;-81
2021/11/16 01:54:03;;;;;;;;;;;11.00;99.90;;;;;;5033730;28;19911;-80
2021/11/16 01:56:30;;;;;;;;;;;10.90;99.90;;;;;;5033521;28;20000;-81
2021/11/16 01:58:58;;;;;;;;;;;10.80;99.90;;;;;;5033631;28;19936;-81
2021/11/16 02:01:24;;;;;;;;;;;10.70;99.90;;;;;;5032900;28;19905;-81
2021/11/16 02:03:50;;;;;;;;;;;10.50;99.90;;;;;;5033409;28;20277;-81
2021/11/16 02:06:17;;;;;;;;;;;10.40;99.90;;;;;;5033373;28;19909;-81
2021/11/16 02:08:43;;;;;;;;;;;10.10;99.90;;;;;;5033352;28;19928;-80
2021/11/16 02:11:09;;;;;;;;;;;10.40;99.90;;;;;;5033281;28;20362;-81
2021/11/16 02:13:34;;;;;;;;;;;10.60;99.90;;;;;;5033127;28;19924;-80
2021/11/16 02:16:00;;;;;;;;;;;10.80;99.90;;;;;;5033334;28;19912;-80
2021/11/16 02:18:25;;;;;;;;;;;10.60;99.90;;;;;;5033297;28;19908;-81
2021/11/16 02:20:51;;;;;;;;;;;10.60;99.90;;;;;;5033475;28;20004;-80
2021/11/16 02:23:17;;;;;;;;;;;10.60;99.90;;;;;;5036119;28;20281;-81
2021/11/16 02:25:44;;;;;;;;;;;10.40;99.90;;;;;;5037073;28;19905;-81
2021/11/16 02:28:09;;;;;;;;;;;10.30;99.90;;;;;;5036907;28;19911;-81
2021/11/16 02:30:35;;;;;;;;;;;10.20;99.90;;;;;;5036907;28;19999;-80
2021/11/16 02:33:01;;;;;;;;;;;10.10;99.90;;;;;;5036864;28;20380;-80
2021/11/16 02:35:27;;;;;;;;;;;10.20;99.90;;;;;;5036965;28;19959;-81
2021/11/16 02:37:53;;;;;;;;;;;10.20;99.90;;;;;;5036843;28;20262;-80
2021/11/16 02:40:22;;;;;;;;;;;10.20;99.90;;;;;;5036659;28;20374;-80
2021/11/16 02:42:48;;;;;;;;;;;10.10;99.90;;;;;;5035368;28;19915;-80
2021/11/16 02:45:14;;;;;;;;;;;10.00;99.90;;;;;;5036748;28;19977;-81
2021/11/16 02:47:40;;;;;;;;;;;10.10;99.90;;;;;;5037198;28;19953;-80
2021/11/16 02:50:06;;;;;;;;;;;10.00;99.90;;;;;;5036557;28;19905;-81
2021/11/16 02:52:31;;;;;;;;;;;10.20;99.90;;;;;;5036516;28;19947;-81
2021/11/16 02:54:57;;;;;;;;;;;10.20;99.90;;;;;;5036582;28;19940;-80
2021/11/16 02:57:23;;;;;;;;;;;10.20;99.90;;;;;;5036652;28;19999;-81
2021/11/16 02:59:49;;;;;;;;;;;10.20;99.90;;;;;;5036450;28;19905;-80
2021/11/16 03:02:15;;;;;;;;;;;10.30;99.90;;;;;;5036404;28;19916;-81
2021/11/16 03:04:45;;;;;;;;;;;10.20;99.90;;;;;;5036380;28;19905;-80
2021/11/16 03:07:11;;;;;;;;;;;10.10;99.90;;;;;;5036766;28;19905;-81
2021/11/16 03:09:37;;;;;;;;;;;10.10;99.90;;;;;;5036427;28;19912;-81
2021/11/16 03:12:03;;;;;;;;;;;10.00;99.90;;;;;;5036188;28;19913;-81
2021/11/16 03:14:30;;;;;;;;;;;10.10;99.90;;;;;;5036730;28;19978;-81
2021/11/16 03:16:55;;;;;;;;;;;10.10;99.90;;;;;;5036113;28;19911;-80
2021/11/16 03:19:22;;;;;;;;;;;10.00;99.90;;;;;;5036260;28;19905;-81
2021/11/16 03:21:55;;;;;;;;;;;10.00;99.90;;;;;;5035981;28;20019;-81
2021/11/16 03:24:22;;;;;;;;;;;10.10;99.90;;;;;;5036115;28;20004;-81
2021/11/16 03:26:48;;;;;;;;;;;10.20;99.90;;;;;;5035975;28;20377;-80
2021/11/16 03:29:16;;;;;;;;;;;10.20;99.90;;;;;;5034658;28;19947;-80
2021/11/16 03:31:49;;;;;;;;;;;10.30;99.90;;;;;;5036062;28;19959;-81
2021/11/16 03:34:14;;;;;;;;;;;10.10;99.90;;;;;;5034868;28;19959;-80
2021/11/16 03:36:40;;;;;;;;;;;10.20;99.90;;;;;;5035890;28;19905;-80
2021/11/16 03:39:06;;;;;;;;;;;10.10;99.90;;;;;;5035674;28;19951;-80
2021/11/16 03:41:32;;;;;;;;;;;10.00;99.90;;;;;;5035975;28;19955;-80
2021/11/16 03:43:58;;;;;;;;;;;10.10;99.90;;;;;;5034354;28;19905;-81
2021/11/16 03:46:24;;;;;;;;;;;10.20;99.90;;;;;;5035665;28;19912;-81
2021/11/16 03:48:50;;;;;;;;;;;10.40;99.90;;;;;;5035583;28;19905;-81
2021/11/16 03:51:15;;;;;;;;;;;10.50;99.90;;;;;;5035577;28;20384;-80
2021/11/16 03:53:41;;;;;;;;;;;10.60;99.90;;;;;;5035458;28;19912;-80
2021/11/16 03:56:07;;;;;;;;;;;10.30;99.90;;;;;;5035390;28;19909;-80
2021/11/16 03:58:33;;;;;;;;;;;10.40;99.90;;;;;;5035415;28;19905;-81
2021/11/16 04:01:09;;;;;;;;;;;10.50;99.90;;;;;;5035657;28;19905;-80
2021/11/16 04:03:35;;;;;;;;;;;10.20;99.90;;;;;;5035268;28;19909;-80
2021/11/16 04:06:03;;;;;;;;;;;9.90;99.90;;;;;;5035260;28;20270;-81
2021/11/16 04:08:28;;;;;;;;;;;10.10;99.90;;;;;;5035165;28;19905;-81
2021/11/16 04:10:54;;;;;;;;;;;9.80;99.90;;;;;;5035155;28;20003;-81
2021/11/16 04:13:20;;;;;;;;;;;9.90;99.90;;;;;;5034910;28;19920;-81
2021/11/16 04:15:47;;;;;;;;;;;9.90;99.90;;;;;;5035330;28;19909;-80
2021/11/16 04:18:13;;;;;;;;;;;10.00;99.90;;;;;;5035009;28;19988;-81
2021/11/16 04:20:40;;;;;;;;;;;10.20;99.90;;;;;;5033683;28;19928;-81
2021/11/16 04:23:08;;;;;;;;;;;10.20;99.90;;;;;;5034820;28;19912;-81
2021/11/16 04:25:34;;;;;;;;;;;10.00;99.90;;;;;;5034878;28;19999;-81
2021/11/16 04:28:01;;;;;;;;;;;10.10;99.90;;;;;;5034833;28;19905;-81
2021/11/16 04:30:27;;;;;;;;;;;10.00;99.90;;;;;;5034826;28;20412;-80
2021/11/16 04:32:53;;;;;;;;;;;10.00;99.90;;;;;;5034760;28;20320;-81
2021/11/16 04:35:20;;;;;;;;;;;9.90;99.90;;;;;;5034844;28;19912;-81
2021/11/16 04:37:48;;;;;;;;;;;9.90;99.90;;;;;;5034740;28;19912;-79
2021/11/16 04:40:16;;;;;;;;;;;9.90;99.90;;;;;;5034547;28;20262;-80
2021/11/16 04:42:42;;;;;;;;;;;9.90;99.90;;;;;;5034978;28;19909;-81
2021/11/16 04:45:10;;;;;;;;;;;9.60;99.90;;;;;;5032965;28;19908;-80
2021/11/16 04:47:49;;;;;;;;;;;9.80;99.90;;;;;;5033220;28;19909;-81
2021/11/16 04:50:31;;;;;;;;;;;9.80;99.90;;;;;;5034431;28;20373;-80
2021/11/16 05:03:39;;;;;;;;;;;10.30;99.90;;;;;;5033957;28;19916;-81
2021/11/16 05:06:04;;;;;;;;;;;10.60;99.90;;;;;;5034231;28;19905;-81
2021/11/16 05:08:30;;;;;;;;;;;10.40;99.90;;;;;;5034151;28;19931;-81
2021/11/16 05:10:56;;;;;;;;;;;10.30;99.90;;;;;;5034461;28;19916;-80
2021/11/16 05:13:21;;;;;;;;;;;10.20;99.90;;;;;;5033810;28;19953;-81
2021/11/16 05:15:50;;;;;;;;;;;10.20;99.90;;;;;;5033985;28;19924;-80
2021/11/16 05:18:16;;;;;;;;;;;10.10;99.90;;;;;;5032674;28;20345;-81
2021/11/16 05:20:42;;;;;;;;;;;10.20;99.90;;;;;;5033943;28;19912;-81
2021/11/16 05:23:09;;;;;;;;;;;10.40;99.90;;;;;;5034004;28;19999;-80
2021/11/16 05:25:36;;;;;;;;;;;10.40;99.90;;;;;;5034122;28;19912;-81
2021/11/16 05:28:02;;;;;;;;;;;10.40;99.90;;;;;;5034338;28;19909;-81
2021/11/16 05:30:29;;;;;;;;;;;10.40;99.90;;;;;;5033813;28;19905;-81
2021/11/16 05:32:56;;;;;;;;;;;10.60;99.90;;;;;;5033989;28;19962;-81
2021/11/16 05:35:21;;;;;;;;;;;10.80;99.90;;;;;;5033764;28;19947;-81
2021/11/16 05:37:47;;;;;;;;;;;10.60;99.90;;;;;;5033731;28;19967;-81
2021/11/16 05:40:13;;;;;;;;;;;10.40;99.90;;;;;;5033639;28;19935;-80
2021/11/16 05:42:38;;;;;;;;;;;10.20;99.90;;;;;;5033556;28;19955;-81
2021/11/16 05:45:05;;;;;;;;;;;10.10;99.90;;;;;;5033873;28;19911;-81
2021/11/16 05:47:30;;;;;;;;;;;10.30;99.90;;;;;;5033663;28;20007;-80
2021/11/16 05:49:56;;;;;;;;;;;10.40;99.90;;;;;;5033590;28;19948;-81
2021/11/16 05:52:23;;;;;;;;;;;10.60;99.90;;;;;;5032228;28;19912;-80
2021/11/16 05:54:51;;;;;;;;;;;10.40;99.90;;;;;;5032289;28;20280;-81
2021/11/16 05:57:16;;;;;;;;;;;10.40;99.90;;;;;;5033784;28;19909;-80
2021/11/16 05:59:42;;;;;;;;;;;10.20;99.90;;;;;;5036326;28;19996;-80
2021/11/16 06:02:09;;;;;;;;;;;10.10;99.90;;;;;;5037469;28;20357;-81
2021/11/16 06:04:35;;;;;;;;;;;10.10;99.90;;;;;;5037559;28;20258;-80
2021/11/16 06:07:01;;;;;;;;;;;10.10;99.90;;;;;;5037821;28;19944;-81
2021/11/16 06:09:29;;;;;;;;;;;10.10;99.90;;;;;;5037517;28;20422;-81
2021/11/16 06:11:56;;;;;;;;;;;10.00;99.90;;;;;;5037217;28;19905;-80
2021/11/16 06:14:21;;;;;;;;;;;9.90;99.90;;;;;;5037802;28;20449;-81
2021/11/16 06:16:47;;;;;;;;;;;10.10;99.90;;;;;;5037670;28;19944;-81
2021/11/16 06:19:16;;;;;;;;;;;10.10;99.90;;;;;;5037292;28;19992;-81
2021/11/16 06:21:42;;;;;;;;;;;10.10;99.90;;;;;;5037216;28;19905;-81
2021/11/16 06:24:07;;;;;;;;;;;10.10;99.90;;;;;;5035869;28;20282;-81
2021/11/16 06:26:33;;;;;;;;;;;10.00;99.90;;;;;;5037143;28;19941;-81
2021/11/16 06:28:59;;;;;;;;;;;10.00;99.90;;;;;;5035797;28;19963;-81
2021/11/16 06:31:26;;;;;;;;;;;10.00;99.90;;;;;;5037080;28;19905;-80
2021/11/16 06:33:55;;;;;;;;;;;10.00;99.90;;;;;;5037129;28;19920;-81
2021/11/16 06:36:22;;;;;;;;;;;10.00;99.90;;;;;;5036893;28;19927;-81
2021/11/16 06:38:48;;;;;;;;;;;10.10;99.90;;;;;;5036846;28;19916;-81
2021/11/16 06:41:14;;;;;;;;;;;10.20;99.90;;;;;;5036981;28;19963;-81
2021/11/16 06:43:40;;;;;;;;;;;10.30;99.90;;;;;;5037303;28;19963;-80
2021/11/16 06:46:05;;;;;;;;;;;10.40;99.90;;;;;;5036744;28;19905;-80
2021/11/16 06:48:31;;;;;;;;;;;10.10;99.90;;;;;;5036765;28;19905;-80
2021/11/16 06:50:57;;;;;;;;;;;10.20;99.90;;;;;;5036693;28;19905;-80
2021/11/16 06:53:23;;;;;;;;;;;10.40;99.90;;;;;;5036670;28;19905;-81
2021/11/16 06:55:49;;;;;;;;;;;10.60;99.90;;;;;;5036651;28;19912;-81
2021/11/16 06:58:15;;;;;;;;;;;10.70;99.90;;;;;;5036528;28;19905;-81
2021/11/16 07:00:41;;;;;;;;;;;10.70;99.90;;;;;;5036436;28;19909;-81
2021/11/16 07:03:06;;;;;;;;;;;10.70;99.90;;;;;;5036828;28;19960;-81
2021/11/16 07:05:33;;;;;;;;;;;10.50;99.90;;;;;;5036712;28;20341;-80
2021/11/16 07:08:00;;;;;;;;;;;10.50;99.90;;;;;;5034848;28;19992;-80
2021/11/16 07:10:31;;;;;;;;;;;10.60;99.90;;;;;;5036441;28;19955;-81
2021/11/16 07:13:04;;;;;;;;;;;10.50;99.90;;;;;;5036157;28;19921;-81
2021/11/16 07:15:33;;;;;;;;;;;10.30;99.90;;;;;;5036377;28;20375;-81
2021/11/16 07:18:03;;;;;;;;;;;10.40;99.90;;;;;;5036255;28;19905;-81
2021/11/16 07:20:29;;;;;;;;;;;10.30;99.90;;;;;;5036170;28;19905;-80
2021/11/16 07:22:56;;;;;;;;;;;10.10;99.90;;;;;;5036054;28;19962;-80
2021/11/16 07:25:22;;;;;;;;;;;10.10;99.90;;;;;;5036464;28;19912;-80
2021/11/16 07:27:49;;;;;;;;;;;10.00;99.90;;;;;;5036082;28;19955;-81
2021/11/16 07:30:19;;;;;;;;;;;10.00;99.90;;;;;;5035983;28;19912;-81
2021/11/16 07:32:46;;;;;;;;;;;9.90;99.90;;;;;;5036033;28;19911;-80
2021/11/16 07:35:15;;;;;;;;;;;9.90;99.90;;;;;;5036269;28;19994;-80
2021/11/16 07:37:41;;;;;;;;;;;9.90;99.90;;;;;;5035873;28;19909;-81
2021/11/16 07:40:12;;;;;;;;;;;10.00;99.90;;;;;;5034419;28;19913;-81
2021/11/16 07:42:46;;;;;;;;;;;10.00;99.90;;;;;;5035656;28;19909;-81
2021/11/16 07:45:17;;;;;;;;;;;10.40;99.90;;;;;;5035934;28;19943;-81
2021/11/16 07:47:48;;;;;;;;;;;10.40;99.90;;;;;;5035629;28;19944;-81
2021/11/16 07:50:19;;;;;;;;;;;10.40;99.90;;;;;;5035700;28;19911;-80
2021/11/16 07:52:45;;;;;;;;;;;10.40;99.90;;;;;;5035625;28;19947;-80
2021/11/16 07:55:26;;;;;;;;;;;10.10;99.90;;;;;;5035498;28;19905;-81
2021/11/16 07:57:54;;;;;;;;;;;10.00;99.90;;;;;;5035698;28;20350;-80
2021/11/16 08:00:25;;;;;;;;;;;10.10;99.90;;;;;;5035412;28;19905;-81
2021/11/16 08:02:58;;;;;;;;;;;10.30;99.90;;;;;;5035357;28;19909;-81
2021/11/16 08:05:35;;;;;;;;;;;10.70;99.90;;;;;;5033807;28;19905;-81
2021/11/16 08:08:16;;;;;;;;;;;10.80;99.90;;;;;;5033696;28;19905;-81
2021/11/16 08:10:44;;;;;;;;;;;10.70;99.90;;;;;;5035347;28;19905;-80
2021/11/16 08:13:19;;;;;;;;;;;10.70;99.90;;;;;;5033643;28;19917;-81
2021/11/16 08:15:45;;;;;;;;;;;10.80;99.90;;;;;;5034459;28;19966;-81
2021/11/16 08:18:14;;;;;;;;;;;10.70;99.90;;;;;;5035027;28;19908;-81
2021/11/16 08:20:43;;;;;;;;;;;10.70;99.90;;;;;;5034403;28;19955;-81
2021/11/16 08:23:09;;;;;;;;;;;10.90;99.90;;;;;;5034845;28;20364;-81
2021/11/16 08:25:36;;;;;;;;;;;10.80;99.90;;;;;;5034765;28;19936;-80
2021/11/16 08:28:03;;;;;;;;;;;10.80;99.90;;;;;;5033613;28;19912;-81
2021/11/16 08:30:29;;;;;;;;;;;10.90;99.90;;;;;;5034825;28;19905;-81
2021/11/16 08:32:59;;;;;;;;;;;11.00;99.90;;;;;;5034748;28;19905;-81
2021/11/16 08:35:25;;;;;;;;;;;11.00;99.90;;;;;;5035069;28;20011;-82
2021/11/16 08:37:56;;;;;;;;;;;11.00;99.90;;;;;;5034697;28;19948;-81
2021/11/16 08:40:23;;;;;;;;;;;11.00;99.90;;;;;;5034672;28;19905;-81
2021/11/16 08:42:53;;;;;;;;;;;11.00;99.90;;;;;;5034592;28;20300;-80
2021/11/16 08:45:25;;;;;;;;;;;11.00;99.90;;;;;;5034573;28;19951;-81
2021/11/16 08:47:55;;;;;;;;;;;10.90;99.90;;;;;;5032857;28;19996;-82
2021/11/16 08:50:32;;;;;;;;;;;10.90;99.90;;;;;;5033140;28;19952;-80
2021/11/16 08:53:01;;;;;;;;;;;10.90;99.90;;;;;;5034705;28;19905;-79
2021/11/16 08:55:31;;;;;;;;;;;11.00;99.90;;;;;;5034366;28;19920;-80
2021/11/16 08:57:58;;;;;;;;;;;11.10;99.90;;;;;;5034561;28;19948;-79
2021/11/16 09:00:24;;;;;;;;;;;11.10;99.90;;;;;;5034305;28;19912;-81
2021/11/16 09:02:50;;;;;;;;;;;11.20;99.90;;;;;;5034173;28;20361;-81
2021/11/16 09:05:18;;;;;;;;;;;11.10;99.90;;;;;;5034493;28;19905;-81
2021/11/16 09:07:47;;;;;;;;;;;10.90;99.90;;;;;;5034726;28;19905;-80
2021/11/16 09:10:13;;;;;;;;;;;11.10;99.90;;;;;;5034416;28;19920;-81
2021/11/16 09:12:45;;;;;;;;;;;11.20;99.90;;;;;;5034037;28;19924;-82
2021/11/16 09:15:12;;;;;;;;;;;11.20;99.90;;;;;;5032827;28;19905;-81
2021/11/16 09:17:39;;;;;;;;;;;11.20;99.90;;;;;;5033967;28;20464;-82
2021/11/16 09:20:14;;;;;;;;;;;11.10;99.90;;;;;;5034011;28;19905;-80
2021/11/16 09:22:40;;;;;;;;;;;10.90;99.90;;;;;;5033936;28;20063;-81
2021/11/16 09:25:19;;;;;;;;;;;11.10;99.90;;;;;;5034305;28;20383;-81
2021/11/16 09:27:46;;;;;;;;;;;10.90;99.90;;;;;;5034089;28;19905;-79
2021/11/16 09:30:13;;;;;;;;;;;10.90;99.90;;;;;;5033808;28;19947;-80
2021/11/16 09:32:58;;;;;;;;;;;11.00;99.90;;;;;;5032887;28;19928;-79
2021/11/16 09:35:40;;;;;;;;;;;11.20;99.90;;;;;;5032249;28;19905;-79
2021/11/16 09:38:05;;;;;;;;;;;10.90;99.90;;;;;;5033907;28;19905;-81
2021/11/16 09:40:31;;;;;;;;;;;10.70;99.90;;;;;;5033668;28;19905;-81
2021/11/16 09:42:58;;;;;;;;;;;10.90;99.90;;;;;;5034161;28;20365;-81
2021/11/16 09:45:25;;;;;;;;;;;10.80;99.90;;;;;;5033548;28;20370;-81
2021/11/16 09:47:51;;;;;;;;;;;10.90;99.90;;;;;;5032202;28;19920;-82
2021/11/16 09:50:21;;;;;;;;;;;11.00;99.90;;;;;;5033852;28;20349;-81
2021/11/16 09:52:51;;;;;;;;;;;10.80;99.90;;;;;;5033646;28;19909;-82
2021/11/16 09:55:20;;;;;;;;;;;10.50;99.90;;;;;;5033513;28;19909;-81
2021/11/16 09:57:47;;;;;;;;;;;10.50;99.90;;;;;;5033422;28;20392;-80
2021/11/16 10:00:13;;;;;;;;;;;10.60;99.90;;;;;;5033512;28;19912;-79
2021/11/16 10:02:41;;;;;;;;;;;10.40;99.90;;;;;;5033659;28;19909;-79
2021/11/16 10:05:08;;;;;;;;;;;10.40;99.90;;;;;;5033444;28;19939;-80
2021/11/16 10:07:34;;;;;;;;;;;10.00;99.90;;;;;;5032195;28;19966;-80
2021/11/16 10:10:01;;;;;;;;;;;10.10;99.90;;;;;;5033338;28;20012;-80
2021/11/16 10:12:47;;;;;;;;;;;10.40;99.90;;;;;;5031862;28;19917;-80
2021/11/16 10:15:14;;;;;;;;;;;10.30;99.90;;;;;;5033063;28;19912;-79
2021/11/16 10:17:43;;;;;;;;;;;10.20;99.90;;;;;;5033881;28;19912;-79
2021/11/16 10:20:11;;;;;;;;;;;10.10;99.90;;;;;;5033545;28;19905;-80
2021/11/16 10:22:37;;;;;;;;;;;10.20;99.90;;;;;;5033214;28;20378;-79
2021/11/16 10:25:10;;;;;;;;;;;10.30;99.90;;;;;;5033423;28;20013;-80
2021/11/16 10:27:36;;;;;;;;;;;10.20;99.90;;;;;;5033358;28;19905;-79
2021/11/16 10:30:08;;;;;;;;;;;10.10;99.90;;;;;;5031870;28;19912;-80
2021/11/16 10:32:33;;;;;;;;;;;10.00;99.90;;;;;;5033194;28;19912;-79
2021/11/16 10:35:13;;;;;;;;;;;10.20;99.90;;;;;;5033437;28;19905;-80
2021/11/16 10:37:46;;;;;;;;;;;10.40;99.90;;;;;;5032265;28;20015;-78
2021/11/16 10:40:12;;;;;;;;;;;10.30;99.90;;;;;;5033095;28;19905;-80
2021/11/16 10:42:45;;;;;;;;;;;10.60;99.90;;;;;;5033373;28;19913;-79
2021/11/16 10:45:13;;;;;;;;;;;10.40;99.90;;;;;;5036778;28;19948;-79
2021/11/16 10:47:39;;;;;;;;;;;10.30;99.90;;;;;;5036911;28;20365;-79
2021/11/16 10:50:08;;;;;;;;;;;10.40;99.90;;;;;;5036642;28;20408;-79
2021/11/16 10:52:35;;;;;;;;;;;10.50;99.90;;;;;;5036723;28;19905;-79
2021/11/16 10:55:02;;;;;;;;;;;10.20;99.90;;;;;;5036631;28;19905;-80
2021/11/16 10:57:48;;;;;;;;;;;10.10;99.90;;;;;;5036659;28;19904;-79
2021/11/16 11:00:14;;;;;;;;;;;9.90;99.90;;;;;;5036765;28;20004;-80
2021/11/16 11:02:39;;;;;;;;;;;9.90;99.90;;;;;;5036665;28;20046;-79
2021/11/16 11:05:05;;;;;;;;;;;10.10;99.90;;;;;;5036514;28;19905;-79
2021/11/16 11:07:37;;;;;;;;;;;10.00;99.90;;;;;;5035036;28;19941;-79
2021/11/16 11:10:03;;;;;;;;;;;10.20;99.90;;;;;;5036627;28;20419;-79
2021/11/16 11:12:32;;;;;;;;;;;10.50;99.90;;;;;;5036106;28;19921;-78
2021/11/16 11:14:58;;;;;;;;;;;10.70;99.90;;;;;;5034806;28;20315;-80
2021/11/16 11:17:34;;;;;;;;;;;10.60;99.90;;;;;;5036127;28;19913;-80
2021/11/16 11:20:07;;;;;;;;;;;10.30;99.90;;;;;;5036525;28;19905;-79
2021/11/16 11:22:40;;;;;;;;;;;10.40;99.90;;;;;;5035915;28;20333;-78
2021/11/16 11:25:34;;;;;;;;;;;10.30;99.90;;;;;;5034415;28;19994;-77
2021/11/16 11:28:02;;;;;;;;;;;10.30;99.90;;;;;;5035775;28;19916;-78
2021/11/16 11:30:30;;;;;;;;;;;10.70;99.90;;;;;;5036232;28;19915;-76
2021/11/16 11:32:56;;;;;;;;;;;11.00;99.90;;;;;;5036138;28;20384;-77
2021/11/16 11:35:23;;;;;;;;;;;10.90;99.90;;;;;;5035761;28;19932;-77
2021/11/16 11:38:08;;;;;;;;;;;10.60;99.90;;;;;;5035726;28;20263;-77
2021/11/16 11:40:39;;;;;;;;;;;10.50;99.90;;;;;;5035747;28;19914;-78
2021/11/16 11:43:07;;;;;;;;;;;10.50;99.90;;;;;;5034139;28;19916;-80
2021/11/16 11:45:36;;;;;;;;;;;10.50;99.90;;;;;;5035731;28;19905;-80
2021/11/16 11:48:14;;;;;;;;;;;10.70;99.90;;;;;;5035944;28;20269;-79
2021/11/16 11:50:41;;;;;;;;;;;11.10;99.90;;;;;;5035474;28;19940;-79
2021/11/16 11:53:08;;;;;;;;;;;11.20;99.90;;;;;;5035682;28;19915;-79
2021/11/16 11:55:36;;;;;;;;;;;11.10;99.90;;;;;;5034423;28;19909;-79
2021/11/16 11:58:06;;;;;;;;;;;11.20;99.90;;;;;;5035233;28;19913;-79
2021/11/16 12:00:33;;;;;;;;;;;11.30;99.90;;;;;;5033486;28;20399;-80
2021/11/16 12:02:59;;;;;;;;;;;11.70;99.90;;;;;;5035323;28;19909;-79
2021/11/16 12:05:28;;;;;;;;;;;11.60;99.90;;;;;;5030018;28;19970;-80
2021/11/16 12:07:54;;;;;;;;;;;11.60;99.90;;;;;;5028350;28;19944;-78
2021/11/16 12:10:20;;;;;;;;;;;11.40;99.90;;;;;;5029912;28;19952;-78
2021/11/16 12:12:46;;;;;;;;;;;11.10;99.90;;;;;;5032894;28;19966;-78
2021/11/16 12:15:16;;;;;;;;;;;11.20;99.90;;;;;;5033235;28;19905;-78
2021/11/16 12:17:52;;;;;;;;;;;11.20;99.90;;;;;;5047429;28;19912;-79
2021/11/16 12:20:38;;;;;;;;;;;11.30;99.90;;;;;;5031735;28;19904;-78
2021/11/16 12:23:05;;;;;;;;;;;11.20;99.90;;;;;;5032103;28;19913;-78
2021/11/16 12:25:31;;;;;;;;;;;10.90;99.90;;;;;;5032169;28;20304;-77
2021/11/16 12:27:58;;;;;;;;;;;10.80;99.90;;;;;;5027953;28;20392;-78
2021/11/16 12:30:47;;;;;;;;;;;10.90;99.90;;;;;;5030056;28;19911;-78
2021/11/16 12:33:13;;;;;;;;;;;10.80;99.90;;;;;;5032545;28;19951;-78
2021/11/16 12:35:45;;;;;;;;;;;10.70;99.90;;;;;;5035035;28;20010;-78
2021/11/16 12:38:15;;;;;;;;;;;11.00;99.90;;;;;;5034710;28;19905;-77
2021/11/16 12:40:43;;;;;;;;;;;11.10;99.90;;;;;;5034576;28;19992;-78
2021/11/16 12:43:15;;;;;;;;;;;11.20;99.90;;;;;;5034568;28;20281;-77
2021/11/16 12:45:42;;;;;;;;;;;10.90;99.90;;;;;;5034844;28;19912;-78
2021/11/16 12:48:08;;;;;;;;;;;10.90;99.90;;;;;;5034707;28;20365;-78
2021/11/16 12:50:34;;;;;;;;;;;11.20;99.90;;;;;;5034608;28;19912;-77
2021/11/16 12:53:00;;;;;;;;;;;11.30;99.90;;;;;;5033151;28;19905;-78
2021/11/16 12:55:30;;;;;;;;;;;11.60;99.90;;;;;;5034477;28;20286;-78
2021/11/16 12:57:58;;;;;;;;;;;11.80;99.90;;;;;;5034215;28;19988;-78
2021/11/16 13:00:37;;;;;;;;;;;12.20;99.90;;;;;;5034199;28;19904;-78
2021/11/16 13:03:03;;;;;;;;;;;11.80;99.90;;;;;;5034231;28;20266;-77
2021/11/16 13:05:36;;;;;;;;;;;11.90;99.90;;;;;;5034009;28;19905;-77
2021/11/16 13:08:04;;;;;;;;;;;11.60;99.90;;;;;;5034217;28;19952;-77
2021/11/16 13:10:41;;;;;;;;;;;11.50;99.90;;;;;;5034130;28;19909;-77
2021/11/16 13:13:14;;;;;;;;;;;11.60;99.90;;;;;;5033975;28;19925;-77
2021/11/16 13:15:42;;;;;;;;;;;11.80;99.90;;;;;;5034053;28;19912;-77
2021/11/16 13:18:11;;;;;;;;;;;11.90;99.90;;;;;;5034020;28;19909;-76
2021/11/16 13:20:40;;;;;;;;;;;11.80;99.90;;;;;;5033957;28;19955;-77
2021/11/16 13:23:25;;;;;;;;;;;11.90;99.90;;;;;;5034022;28;19909;-78
2021/11/16 13:25:51;;;;;;;;;;;12.00;99.90;;;;;;5032282;28;19991;-77
2021/11/16 13:31:00;;;;;;;;;;;11.80;99.90;;;;;;5033613;28;19992;-78
2021/11/16 13:33:44;;;;;;;;;;;11.70;99.90;;;;;;5032322;28;19905;-78
2021/11/16 13:36:13;;;;;;;;;;;11.80;99.90;;;;;;5033376;28;20026;-78
2021/11/16 13:38:59;;;;;;;;;;;11.60;99.90;;;;;;5032291;28;20384;-77
2021/11/16 13:41:43;;;;;;;;;;;11.60;99.90;;;;;;5033735;28;19988;-77
2021/11/16 13:44:09;;;;;;;;;;;11.60;99.90;;;;;;5033683;28;19913;-77
2021/11/16 13:46:36;;;;;;;;;;;11.80;99.90;;;;;;5034057;28;19905;-78
2021/11/16 13:49:01;;;;;;;;;;;11.90;99.90;;;;;;5033631;28;19940;-77
2021/11/16 13:51:27;;;;;;;;;;;11.90;99.90;;;;;;5033668;28;19959;-77
2021/11/16 13:53:56;;;;;;;;;;;12.00;99.90;;;;;;5033587;28;19905;-78
2021/11/16 13:56:22;;;;;;;;;;;11.90;99.90;;;;;;5033584;28;20338;-77
2021/11/16 13:58:48;;;;;;;;;;;12.20;99.90;;;;;;5033559;28;19948;-77
2021/11/16 14:01:14;;;;;;;;;;;12.10;99.90;;;;;;5033700;28;19991;-77
2021/11/16 14:03:40;;;;;;;;;;;12.30;99.90;;;;;;5033448;28;19909;-77
2021/11/16 14:06:06;;;;;;;;;;;12.40;99.90;;;;;;5033566;28;19905;-77
2021/11/16 14:08:33;;;;;;;;;;;12.20;99.90;;;;;;5033442;28;19912;-77
2021/11/16 14:10:59;;;;;;;;;;;11.90;99.90;;;;;;5033460;28;19955;-77
2021/11/16 14:13:26;;;;;;;;;;;12.10;99.90;;;;;;5033333;28;20412;-77
2021/11/16 14:15:59;;;;;;;;;;;12.00;99.90;;;;;;5033358;28;19905;-77
2021/11/16 14:18:25;;;;;;;;;;;12.00;99.90;;;;;;5034980;28;19991;-79
2021/11/16 14:21:11;;;;;;;;;;;12.30;99.90;;;;;;5036083;28;19944;-78
2021/11/16 14:23:38;;;;;;;;;;;12.60;99.90;;;;;;5037322;28;19909;-77
2021/11/16 14:26:06;;;;;;;;;;;12.40;99.90;;;;;;5037209;28;19905;-79
2021/11/16 14:28:33;;;;;;;;;;;12.60;99.90;;;;;;5037411;28;19955;-78
2021/11/16 14:31:07;;;;;;;;;;;12.50;99.90;;;;;;5037105;28;20293;-78
2021/11/16 14:33:38;;;;;;;;;;;12.50;99.90;;;;;;5037220;28;19911;-77
2021/11/16 14:36:04;;;;;;;;;;;12.80;99.90;;;;;;5037315;28;19955;-77
2021/11/16 14:38:31;;;;;;;;;;;12.60;99.90;;;;;;5037081;28;19909;-78